createdAt,value
2022-12-07T00:04:25.764Z,2.55
2022-12-07T00:09:27.203Z,2.51
2022-12-07T00:14:28.663Z,2.43
2022-12-07T00:19:30.091Z,2.32
2022-12-07T00:24:31.561Z,2.21
2022-12-07T00:29:32.988Z,2.28
2022-12-07T00:34:34.458Z,2.20
2022-12-07T00:39:35.879Z,2.16
2022-12-07T00:44:37.552Z,2.07
2022-12-07T00:49:39.130Z,2.00
2022-12-07T00:54:40.972Z,1.93
2022-12-07T00:59:42.397Z,1.82
2022-12-07T01:04:43.824Z,1.75
2022-12-07T01:09:45.286Z,1.80
2022-12-07T01:14:46.925Z,1.78
2022-12-07T01:19:48.510Z,1.68
2022-12-07T01:24:50.156Z,1.65
2022-12-07T01:29:52.027Z,1.64
2022-12-07T01:34:53.648Z,1.59
2022-12-07T01:39:55.091Z,1.57
2022-12-07T01:45:15.365Z,1.55
2022-12-07T01:50:17.162Z,1.67
2022-12-07T01:55:19.325Z,1.71
2022-12-07T02:00:20.894Z,1.86
2022-12-07T02:05:23.763Z,1.92
2022-12-07T02:10:28.892Z,1.84
2022-12-07T02:15:42.682Z,1.74
2022-12-07T02:20:58.921Z,1.77
2022-12-07T02:26:33.277Z,1.69
2022-12-07T02:31:36.602Z,1.72
2022-12-07T02:36:45.420Z,1.69
2022-12-07T02:41:58.452Z,1.68
2022-12-07T02:47:08.075Z,1.62
2022-12-07T02:52:09.665Z,1.54
2022-12-07T02:57:42.917Z,1.49
2022-12-07T03:03:01.760Z,1.36
2022-12-07T03:08:09.061Z,1.27
2022-12-07T03:13:23.270Z,1.22
2022-12-07T03:18:29.925Z,1.28
2022-12-07T03:23:34.860Z,1.37
2022-12-07T03:28:40.545Z,1.41
2022-12-07T03:34:00.534Z,1.40
2022-12-07T03:39:14.404Z,1.40
2022-12-07T03:44:16.980Z,1.45
2022-12-07T03:49:31.285Z,1.43
2022-12-07T03:54:48.209Z,1.47
2022-12-07T03:59:51.237Z,1.48
2022-12-07T04:04:53.252Z,1.56
2022-12-07T04:09:55.802Z,1.55
2022-12-07T04:14:57.228Z,1.46
2022-12-07T04:19:58.784Z,1.44
2022-12-07T04:25:00.346Z,1.40
2022-12-07T04:30:02.254Z,1.33
2022-12-07T04:35:04.605Z,1.23
2022-12-07T04:40:09.588Z,1.28
2022-12-07T04:45:11.307Z,1.34
2022-12-07T04:50:12.756Z,1.41
2022-12-07T04:55:14.189Z,1.43
2022-12-07T05:00:15.741Z,1.49
2022-12-07T05:05:17.158Z,1.49
2022-12-07T05:10:18.671Z,1.53
2022-12-07T05:15:20.127Z,1.56
2022-12-07T05:20:21.832Z,1.50
2022-12-07T05:25:23.251Z,1.44
2022-12-07T05:30:26.337Z,1.42
2022-12-07T05:35:27.806Z,1.42
2022-12-07T05:40:29.332Z,1.38
2022-12-07T05:45:30.911Z,1.46
2022-12-07T05:50:32.451Z,1.51
2022-12-07T05:55:36.876Z,1.57
2022-12-07T06:00:38.326Z,1.61
2022-12-07T06:05:39.768Z,1.57
2022-12-07T06:10:42.457Z,1.57
2022-12-07T06:15:43.920Z,1.66
2022-12-07T06:20:45.446Z,1.67
2022-12-07T06:25:47.129Z,1.66
2022-12-07T06:30:48.655Z,1.77
2022-12-07T06:35:50.160Z,1.82
2022-12-07T06:40:51.696Z,1.92
2022-12-07T06:45:53.213Z,1.93
2022-12-07T06:50:55.546Z,1.99
2022-12-07T06:55:57.129Z,1.99
2022-12-07T07:01:02.506Z,2.03
2022-12-07T07:06:04.229Z,2.02
2022-12-07T07:11:07.383Z,1.94
2022-12-07T07:16:09.512Z,1.88
2022-12-07T07:21:11.227Z,1.78
2022-12-07T07:26:12.700Z,1.64
2022-12-07T07:31:14.341Z,1.46
2022-12-07T07:36:15.875Z,1.35
2022-12-07T07:41:17.339Z,1.29
2022-12-07T07:46:19.006Z,1.20
2022-12-07T07:51:20.490Z,1.18
2022-12-07T07:56:21.931Z,1.11
2022-12-07T08:01:23.475Z,1.13
2022-12-07T08:06:30.525Z,1.31
2022-12-07T08:11:33.624Z,1.33
2022-12-07T08:16:38.268Z,1.33
2022-12-07T08:21:51.419Z,1.25
2022-12-07T08:27:00.816Z,1.24
2022-12-07T08:32:09.698Z,1.40
2022-12-07T08:37:21.606Z,1.55
2022-12-07T08:43:02.028Z,1.62
2022-12-07T08:48:52.670Z,1.64
2022-12-07T08:54:18.709Z,1.70
2022-12-07T08:59:42.692Z,1.78
2022-12-07T09:05:00.315Z,1.80
2022-12-07T09:10:22.502Z,1.85
2022-12-07T09:15:56.752Z,1.96
2022-12-07T09:20:58.649Z,2.04
2022-12-07T09:26:10.765Z,2.10
2022-12-07T09:31:24.674Z,2.24
2022-12-07T09:36:34.914Z,2.37
2022-12-07T09:41:44.034Z,2.57
2022-12-07T09:47:03.647Z,2.89
2022-12-07T09:52:39.497Z,3.35
2022-12-07T09:57:54.920Z,3.58
2022-12-07T10:03:06.888Z,3.64
2022-12-07T10:08:12.553Z,3.40
2022-12-07T10:13:37.430Z,3.63
2022-12-07T10:18:43.136Z,3.95
2022-12-07T10:24:05.842Z,4.10
2022-12-07T10:29:21.657Z,4.21
2022-12-07T10:34:27.892Z,4.55
2022-12-07T10:39:29.702Z,4.70
2022-12-07T10:44:34.229Z,4.68
2022-12-07T10:49:46.085Z,4.56
2022-12-07T10:55:27.580Z,4.52
2022-12-07T11:00:43.786Z,4.42
2022-12-07T11:06:07.248Z,4.30
2022-12-07T11:11:21.748Z,4.28
2022-12-07T11:16:53.877Z,4.43
2022-12-07T11:22:05.217Z,4.54
2022-12-07T11:27:21.269Z,4.67
2022-12-07T11:32:37.834Z,4.60
2022-12-07T11:42:49.599Z,4.69
2022-12-07T11:48:02.790Z,4.59
2022-12-07T11:53:09.903Z,4.62
2022-12-07T11:58:32.108Z,4.74
2022-12-07T12:03:39.397Z,4.62
2022-12-07T12:20:04.165Z,4.74
2022-12-07T12:25:11.683Z,4.71
2022-12-07T12:30:35.075Z,4.73
2022-12-07T12:35:37.995Z,4.74
2022-12-07T12:40:43.163Z,4.51
2022-12-07T12:45:48.645Z,4.32
2022-12-07T12:51:10.283Z,4.16
2022-12-07T12:56:38.847Z,4.09
2022-12-07T13:01:42.990Z,4.09
2022-12-07T13:06:44.797Z,4.12
2022-12-07T13:11:47.139Z,4.25
2022-12-07T13:16:48.703Z,4.40
2022-12-07T13:21:50.237Z,4.45
2022-12-07T13:26:56.903Z,4.68
2022-12-07T13:32:01.846Z,4.80
2022-12-07T13:37:16.807Z,4.72
2022-12-07T13:42:31.763Z,4.59
2022-12-07T13:47:37.329Z,4.43
2022-12-07T13:52:44.752Z,4.28
2022-12-07T13:57:50.566Z,4.22
2022-12-07T14:03:23.173Z,4.17
2022-12-07T14:08:25.649Z,4.13
2022-12-07T14:13:36.301Z,4.12
2022-12-07T14:18:40.927Z,4.12
2022-12-07T14:23:43.214Z,3.92
2022-12-07T14:28:44.791Z,3.33
2022-12-07T14:33:46.398Z,2.87
2022-12-07T14:38:48.263Z,2.55
2022-12-07T14:44:21.250Z,2.29
2022-12-07T14:54:34.050Z,2.03
2022-12-07T14:59:39.133Z,2.03
2022-12-07T15:04:42.404Z,2.03
2022-12-07T15:09:43.972Z,2.06
2022-12-07T15:14:45.410Z,2.05
2022-12-07T15:19:46.910Z,2.08
2022-12-07T15:24:48.404Z,2.09
2022-12-07T15:29:49.919Z,2.12
2022-12-07T15:34:51.361Z,2.10
2022-12-07T15:39:52.868Z,2.02
2022-12-07T15:45:06.694Z,1.96
2022-12-07T15:50:12.871Z,1.98
2022-12-07T15:55:14.357Z,2.09
2022-12-07T16:00:16.262Z,2.09
2022-12-07T16:05:17.764Z,2.07
2022-12-07T16:10:19.199Z,1.99
2022-12-07T16:15:24.455Z,2.00
2022-12-07T16:20:26.472Z,1.97
2022-12-07T16:25:27.948Z,1.89
2022-12-07T16:30:29.450Z,1.86
2022-12-07T16:35:30.888Z,1.86
2022-12-07T16:40:32.527Z,1.89
2022-12-07T16:45:34.005Z,1.90
2022-12-07T16:50:35.726Z,1.91
2022-12-07T16:55:41.551Z,1.96
2022-12-07T17:00:51.334Z,2.00
2022-12-07T17:05:56.207Z,2.00
2022-12-07T17:10:57.697Z,1.99
2022-12-07T17:16:04.772Z,1.97
2022-12-07T17:21:08.212Z,1.91
2022-12-07T17:26:14.154Z,1.79
2022-12-07T17:31:18.880Z,1.73
2022-12-07T17:36:27.848Z,1.68
2022-12-07T17:41:50.192Z,1.66
2022-12-07T17:47:02.174Z,1.67
2022-12-07T17:52:25.238Z,1.56
2022-12-07T17:57:26.714Z,1.46
2022-12-07T18:02:28.182Z,1.41
2022-12-07T18:07:30.040Z,1.37
2022-12-07T18:12:31.528Z,1.32
2022-12-07T18:17:33.163Z,1.20
2022-12-07T18:22:36.414Z,1.22
2022-12-07T18:27:37.937Z,1.12
2022-12-07T18:32:39.383Z,1.06
2022-12-07T18:37:41.195Z,1.01
2022-12-07T18:42:42.895Z,0.99
2022-12-07T18:47:44.333Z,1.00
2022-12-07T18:52:45.884Z,0.99
2022-12-07T18:57:47.305Z,0.90
2022-12-07T19:02:53.320Z,0.88
2022-12-07T19:07:55.106Z,0.85
2022-12-07T19:13:01.266Z,0.82
2022-12-07T19:22:36.466Z,0.78
2022-12-07T19:27:38.081Z,0.76
2022-12-07T19:32:39.551Z,0.79
2022-12-07T19:37:41.054Z,0.81
2022-12-07T19:42:42.570Z,0.84
2022-12-07T19:47:44.060Z,0.87
2022-12-07T19:52:45.509Z,0.92
2022-12-07T19:57:47.079Z,0.90
2022-12-07T20:02:51.742Z,0.94
2022-12-07T20:07:53.436Z,0.94
2022-12-07T20:13:13.323Z,0.97
2022-12-07T20:18:14.749Z,0.97
2022-12-07T20:23:16.215Z,1.00
2022-12-07T20:28:17.677Z,1.05
2022-12-07T20:33:20.463Z,1.08
2022-12-07T20:38:21.968Z,1.11
2022-12-07T20:43:23.414Z,1.11
2022-12-07T20:48:24.964Z,1.11
2022-12-07T20:53:26.627Z,1.13
2022-12-07T20:58:28.746Z,1.16
2022-12-07T21:03:30.441Z,1.17
2022-12-07T21:08:31.927Z,1.20
2022-12-07T21:13:33.465Z,1.16
2022-12-07T21:18:35.124Z,1.16
2022-12-07T21:23:37.501Z,1.20
2022-12-07T21:28:39.302Z,1.21
2022-12-07T21:33:41.571Z,1.21
2022-12-07T21:38:43.297Z,1.18
2022-12-07T21:43:45.807Z,1.13
2022-12-07T21:48:59.602Z,1.12
2022-12-07T21:54:02.731Z,1.09
2022-12-07T21:59:11.434Z,1.05
2022-12-07T22:04:23.109Z,1.01
2022-12-07T22:09:24.888Z,0.97
2022-12-07T22:14:45.130Z,0.98
2022-12-07T22:19:46.651Z,0.94
2022-12-07T22:24:48.420Z,0.92
2022-12-07T22:29:49.949Z,0.93
2022-12-07T22:34:51.468Z,0.96
2022-12-07T22:39:53.041Z,1.01
2022-12-07T22:44:54.603Z,1.00
2022-12-07T22:49:56.693Z,0.97
2022-12-07T22:54:58.249Z,0.98
2022-12-07T22:59:59.911Z,0.96
2022-12-07T23:05:01.822Z,0.94
2022-12-07T23:10:05.403Z,0.80
2022-12-07T23:15:07.281Z,0.77
2022-12-07T23:20:09.405Z,0.77
2022-12-07T23:25:10.909Z,0.72
2022-12-07T23:30:12.506Z,0.69
2022-12-07T23:35:13.970Z,0.62
2022-12-07T23:40:15.572Z,0.62
2022-12-07T23:45:17.232Z,0.53
2022-12-07T23:50:18.848Z,0.48
2022-12-07T23:55:21.470Z,0.46
